Time;durP1;ratioP1;P1;durP2;ratioP2;P2;SDS_P1;SDS_P2;PMS_P1;PMS_P2;Temp;Humidity;BMP_temperature;BMP_pressure;BME280_temperature;BME280_humidity;BME280_pressure;Samples;Min_cycle;Max_cycle;Signal;HPM_P1;HPM_P2
2022/09/16 00:02:24;;;;;;;13.30;1.90;;;10.40;99.90;;;;;;5008312;28;20057;-89
2022/09/16 00:05:13;;;;;;;8.30;2.08;;;10.40;99.90;;;;;;4999642;28;20690;-89
2022/09/16 00:07:57;;;;;;;7.32;1.83;;;10.40;99.90;;;;;;4999146;28;20052;-89
2022/09/16 00:10:35;;;;;;;7.38;1.80;;;10.40;99.90;;;;;;4985084;28;20408;-89
2022/09/16 00:13:21;;;;;;;7.35;1.90;;;10.30;99.90;;;;;;4999005;28;20505;-89
2022/09/16 00:16:31;;;;;;;;;;;;;;;;;;;;;
2022/09/16 00:22:18;;;;;;;7.97;2.38;;;10.50;99.90;;;;;;5003370;28;20416;-89
2022/09/16 00:25:02;;;;;;;;;;;;;;;;;;;;;
2022/09/16 00:27:59;;;;;;;8.18;1.90;;;10.50;99.90;;;;;;5014745;28;20400;-89
2022/09/16 00:31:21;;;;;;;;;;;;;;;;;;;;;
2022/09/16 00:33:59;;;;;;;5.78;1.60;;;10.60;99.90;;;;;;5015594;28;20054;-89
2022/09/16 00:36:31;;;;;;;3.92;1.27;;;10.70;99.90;;;;;;5014426;28;20042;-89
2022/09/16 00:39:34;;;;;;;6.50;1.63;;;10.70;99.90;;;;;;4998183;28;20052;-90
2022/09/16 00:42:44;;;;;;;9.85;2.00;;;10.60;99.90;;;;;;4986612;28;20050;-90
2022/09/16 00:45:30;;;;;;;5.72;1.58;;;10.80;99.90;;;;;;4998046;28;20060;-90
2022/09/16 00:48:05;;;;;;;6.13;1.25;;;10.80;99.90;;;;;;4998616;28;20046;-88
2022/09/16 00:50:54;;;;;;;;;;;;;;;;;;;;;
2022/09/16 00:53:50;;;;;;;5.93;1.60;;;10.80;99.90;;;;;;5014479;28;20073;-89
2022/09/16 00:56:40;;;;;;;;;;;;;;;;;;;;;
2022/09/16 00:59:25;;;;;;;7.75;1.58;;;10.90;99.90;;;;;;5014447;28;20444;-88
2022/09/16 01:02:21;;;;;;;6.72;1.48;;;10.70;99.90;;;;;;5014835;28;20424;-89
2022/09/16 01:04:58;;;;;;;5.80;1.35;;;10.60;99.90;;;;;;4998100;28;20085;-90
2022/09/16 01:11:24;;;;;;;9.50;1.60;;;10.70;99.90;;;;;;5014769;28;20046;-89
2022/09/16 01:17:43;;;;;;;7.38;1.50;;;10.60;99.90;;;;;;5014135;28;20493;-89
2022/09/16 01:20:50;;;;;;;7.47;1.33;;;10.50;99.90;;;;;;4998101;28;20054;-89
2022/09/16 01:24:02;;;;;;;10.38;1.90;;;10.50;99.90;;;;;;4997522;28;20053;-89
2022/09/16 01:27:08;;;;;;;6.07;1.40;;;10.50;99.90;;;;;;4998036;28;20046;-90
2022/09/16 01:29:58;;;;;;;6.40;1.70;;;10.50;99.90;;;;;;5013839;28;20136;-89
2022/09/16 01:32:51;;;;;;;6.22;1.40;;;10.40;99.90;;;;;;4996811;28;20053;-88
2022/09/16 01:35:31;;;;;;;8.55;1.67;;;10.40;99.90;;;;;;4997891;28;20052;-89
2022/09/16 01:38:36;;;;;;;7.55;1.60;;;10.30;99.90;;;;;;4997356;28;20370;-88
2022/09/16 01:41:15;;;;;;;8.38;1.50;;;10.30;99.90;;;;;;4997040;28;20397;-89
2022/09/16 01:44:06;;;;;;;6.18;2.03;;;10.20;99.90;;;;;;4997428;28;20081;-90
2022/09/16 01:47:30;;;;;;;;;;;;;;;;;;;;;
2022/09/16 01:50:34;;;;;;;4.63;1.15;;;10.20;99.90;;;;;;4991757;28;20069;-88
2022/09/16 01:53:45;;;;;;;;;;;;;;;;;;;;;
2022/09/16 01:56:49;;;;;;;5.85;1.58;;;10.20;99.90;;;;;;5012744;28;20052;-89
2022/09/16 01:59:50;;;;;;;6.18;1.45;;;10.10;99.90;;;;;;5013370;28;20045;-88
2022/09/16 02:02:59;;;;;;;4.85;1.50;;;10.20;99.90;;;;;;4996042;28;20042;-89
2022/09/16 02:05:55;;;;;;;;;;;;;;;;;;;;;
2022/09/16 02:09:02;;;;;;;;;;;;;;;;;;;;;
2022/09/16 02:11:59;;;;;;;11.00;1.70;;;10.10;99.90;;;;;;5013707;28;20050;-89
2022/09/16 02:14:52;;;;;;;6.38;1.75;;;10.10;99.90;;;;;;4997500;28;20416;-88
2022/09/16 02:20:27;;;;;;;5.88;1.60;;;10.00;99.90;;;;;;4998479;28;20477;-89
2022/09/16 02:23:11;;;;;;;8.52;1.48;;;9.90;99.90;;;;;;5012905;28;20038;-89
2022/09/16 02:25:51;;;;;;;9.18;1.80;;;10.00;99.90;;;;;;4996433;28;20092;-89
2022/09/16 02:28:28;;;;;;;10.15;1.73;;;9.90;99.90;;;;;;4997752;28;20473;-88
2022/09/16 02:31:03;;;;;;;7.18;1.50;;;10.00;99.90;;;;;;4997009;28;20050;-88
2022/09/16 02:33:44;;;;;;;7.55;1.60;;;9.80;99.90;;;;;;4997030;28;20053;-88
2022/09/16 02:36:24;;;;;;;12.10;2.22;;;10.00;99.90;;;;;;4997092;28;20432;-89
2022/09/16 02:39:02;;;;;;;10.45;1.70;;;10.00;99.90;;;;;;4996473;28;20042;-88
2022/09/16 02:41:38;;;;;;;11.02;2.03;;;9.90;99.90;;;;;;5013412;28;20404;-89
2022/09/16 02:44:08;;;;;;;13.52;1.90;;;10.00;99.90;;;;;;5013360;28;20049;-89
2022/09/16 02:47:07;;;;;;;;;;;;;;;;;;;;;
2022/09/16 02:49:54;;;;;;;5.35;1.75;;;10.00;99.90;;;;;;5013410;28;20050;-91
2022/09/16 02:55:59;;;;;;;10.95;2.45;;;10.10;99.90;;;;;;5012348;28;20132;-89
2022/09/16 02:58:25;;;;;;;13.20;2.40;;;10.30;99.90;;;;;;4996452;28;20065;-89
2022/09/16 03:01:01;;;;;;;9.88;2.30;;;10.20;99.90;;;;;;4996267;28;20505;-89
2022/09/16 03:03:55;;;;;;;8.40;2.10;;;10.20;99.90;;;;;;4995884;28;20432;-89
2022/09/16 03:06:27;;;;;;;8.52;2.35;;;10.20;99.90;;;;;;4995514;28;20046;-89
2022/09/16 03:09:10;;;;;;;12.23;2.03;;;10.20;99.90;;;;;;4995973;28;20481;-89
2022/09/16 03:12:03;;;;;;;11.80;2.00;;;10.20;99.90;;;;;;5013118;28;20374;-90
2022/09/16 03:14:56;;;;;;;14.82;2.83;;;10.10;99.90;;;;;;4997199;28;20188;-89
2022/09/16 03:18:00;;;;;;;8.13;2.50;;;10.10;99.90;;;;;;4995793;28;20046;-89
2022/09/16 03:21:05;;;;;;;;;;;;;;;;;;;;;
2022/09/16 03:24:30;;;;;;;11.50;2.60;;;10.10;99.90;;;;;;5012318;28;20042;-89
2022/09/16 03:28:02;;;;;;;8.27;1.88;;;10.00;99.90;;;;;;4976072;28;20064;-89
2022/09/16 03:30:37;;;;;;;9.75;1.98;;;10.00;99.90;;;;;;4998417;28;20061;-89
2022/09/16 03:33:42;;;;;;;11.18;1.70;;;10.00;99.90;;;;;;5000236;28;20053;-89
2022/09/16 03:36:16;;;;;;;14.82;2.30;;;9.80;99.90;;;;;;4991460;28;20046;-89
2022/09/16 03:38:49;;;;;;;10.85;1.77;;;9.70;99.90;;;;;;4999892;28;20049;-89
2022/09/16 03:41:23;;;;;;;11.18;2.38;;;9.70;99.90;;;;;;4999142;28;20049;-88
2022/09/16 03:44:12;;;;;;;9.18;2.10;;;9.70;99.90;;;;;;5017877;28;20077;-89
2022/09/16 03:46:38;;;;;;;9.02;2.00;;;9.60;99.90;;;;;;4998885;28;20133;-90
2022/09/16 03:49:04;;;;;;;7.32;1.80;;;9.70;99.90;;;;;;4999641;28;20121;-89
2022/09/16 03:51:30;;;;;;;9.32;1.95;;;9.80;99.90;;;;;;4998951;28;20042;-88
2022/09/16 03:53:59;;;;;;;10.57;2.25;;;9.50;99.90;;;;;;4999204;28;20050;-88
2022/09/16 03:56:53;;;;;;;10.88;2.00;;;9.60;99.90;;;;;;5015205;28;20220;-89
2022/09/16 03:59:22;;;;;;;10.65;2.05;;;9.60;99.90;;;;;;4999895;28;20049;-87
2022/09/16 04:01:48;;;;;;;10.35;2.28;;;9.60;99.90;;;;;;4998901;28;20049;-88
2022/09/16 04:04:16;;;;;;;6.20;1.70;;;9.60;99.90;;;;;;4999771;28;20053;-89
2022/09/16 04:06:42;;;;;;;6.30;1.60;;;9.80;99.90;;;;;;4998658;28;20053;-89
2022/09/16 04:09:13;;;;;;;10.93;1.85;;;9.90;99.90;;;;;;5014809;28;20046;-88
2022/09/16 04:11:47;;;;;;;15.88;3.00;;;9.50;99.90;;;;;;4998903;28;20049;-88
2022/09/16 04:14:15;;;;;;;7.55;1.77;;;9.90;99.90;;;;;;4999087;28;20389;-89
2022/09/16 04:16:43;;;;;;;9.07;2.30;;;9.40;99.90;;;;;;4999121;28;20045;-88
2022/09/16 04:19:20;;;;;;;11.18;2.50;;;9.40;99.90;;;;;;4998735;28;20129;-89
2022/09/16 04:21:45;;;;;;;13.57;2.10;;;9.30;99.90;;;;;;4983624;28;20053;-88
2022/09/16 04:24:12;;;;;;;8.57;2.00;;;9.30;99.90;;;;;;4999160;28;20169;-88
2022/09/16 04:26:40;;;;;;;8.00;1.73;;;9.20;99.90;;;;;;4998767;28;20053;-88
2022/09/16 04:29:11;;;;;;;12.32;1.90;;;9.70;99.90;;;;;;4998213;28;20103;-89
2022/09/16 04:31:41;;;;;;;8.13;1.85;;;9.20;99.90;;;;;;4998512;28;20062;-88
2022/09/16 04:34:10;;;;;;;11.57;2.00;;;9.20;99.90;;;;;;4998729;28;20389;-88
2022/09/16 04:36:39;;;;;;;9.90;1.77;;;9.50;99.90;;;;;;4998078;28;20085;-88
2022/09/16 04:39:05;;;;;;;10.65;2.05;;;9.60;99.90;;;;;;5014909;28;20397;-89
2022/09/16 04:41:31;;;;;;;9.60;2.30;;;9.40;99.90;;;;;;4997328;28;20053;-88
2022/09/16 04:43:58;;;;;;;7.65;1.95;;;9.20;99.90;;;;;;4998176;28;20073;-88
2022/09/16 04:46:29;;;;;;;8.65;1.70;;;9.20;99.90;;;;;;4997635;28;20438;-89
2022/09/16 04:48:59;;;;;;;12.27;1.90;;;9.60;99.90;;;;;;4997891;28;20337;-88
2022/09/16 04:51:28;;;;;;;9.60;1.90;;;9.20;99.90;;;;;;5014413;28;20045;-87
2022/09/16 04:53:57;;;;;;;6.07;1.85;;;9.20;99.90;;;;;;4981411;28;20045;-88
2022/09/16 04:56:32;;;;;;;12.25;2.10;;;9.40;99.90;;;;;;4997559;28;20045;-88
2022/09/16 04:59:01;;;;;;;9.93;2.28;;;9.20;99.90;;;;;;4982001;28;20042;-88
2022/09/16 05:01:32;;;;;;;8.75;2.17;;;9.20;99.90;;;;;;4998083;28;20045;-88
2022/09/16 05:04:01;;;;;;;10.27;2.38;;;9.20;99.90;;;;;;4997464;28;20050;-87
2022/09/16 05:06:36;;;;;;;11.95;2.22;;;9.20;99.90;;;;;;4997608;28;20548;-88
2022/09/16 05:09:03;;;;;;;11.27;2.40;;;9.10;99.90;;;;;;4998199;28;20042;-87
2022/09/16 05:11:32;;;;;;;14.93;2.70;;;9.30;99.90;;;;;;4998335;28;20056;-89
2022/09/16 05:14:00;;;;;;;12.13;2.85;;;9.70;99.90;;;;;;4997306;28;20057;-89
2022/09/16 05:16:27;;;;;;;14.48;2.50;;;9.30;99.90;;;;;;5013837;28;20064;-89
2022/09/16 05:19:05;;;;;;;14.02;2.47;;;9.30;99.90;;;;;;5013984;28;20405;-89
2022/09/16 05:21:34;;;;;;;13.52;2.15;;;9.30;99.90;;;;;;4997783;28;20046;-88
2022/09/16 05:24:10;;;;;;;8.73;2.20;;;9.30;99.90;;;;;;4997458;28;20140;-88
2022/09/16 05:26:40;;;;;;;13.43;2.15;;;9.20;99.90;;;;;;4997502;28;20050;-88
2022/09/16 05:29:15;;;;;;;11.32;2.45;;;9.20;99.90;;;;;;4996906;28;20497;-88
2022/09/16 05:31:42;;;;;;;13.07;2.22;;;9.20;99.90;;;;;;4997007;28;20153;-88
2022/09/16 05:34:14;;;;;;;13.23;2.55;;;9.10;99.90;;;;;;4997446;28;20045;-89
2022/09/16 05:36:49;;;;;;;8.82;2.10;;;9.10;99.90;;;;;;5014423;28;20366;-88
2022/09/16 05:39:19;;;;;;;8.75;2.28;;;9.00;99.90;;;;;;4997710;28;20469;-89
2022/09/16 05:41:51;;;;;;;14.35;2.80;;;9.00;99.90;;;;;;4997861;28;20160;-88
2022/09/16 05:44:16;;;;;;;15.82;2.72;;;9.00;99.90;;;;;;4997828;28;20045;-88
2022/09/16 05:46:47;;;;;;;16.40;2.53;;;9.10;99.90;;;;;;5013665;28;20369;-89
2022/09/16 05:49:19;;;;;;;8.23;2.30;;;9.10;99.90;;;;;;5013070;28;20043;-88
2022/09/16 05:51:48;;;;;;;12.85;2.58;;;9.10;99.90;;;;;;4997097;28;20443;-88
2022/09/16 05:54:17;;;;;;;11.88;3.10;;;9.00;99.90;;;;;;5013289;28;20132;-88
2022/09/16 05:56:49;;;;;;;13.98;2.88;;;9.20;99.90;;;;;;4997580;28;20430;-91
2022/09/16 05:59:18;;;;;;;13.07;2.88;;;9.30;99.90;;;;;;4965742;28;20045;-90
2022/09/16 06:01:46;;;;;;;10.63;2.88;;;9.20;99.90;;;;;;5013143;28;20099;-90
2022/09/16 06:04:30;;;;;;;16.30;2.58;;;9.00;99.90;;;;;;5013111;28;20050;-90
2022/09/16 06:07:06;;;;;;;13.90;2.85;;;9.30;99.90;;;;;;4996994;28;20049;-90
2022/09/16 06:09:32;;;;;;;13.63;3.13;;;9.30;99.90;;;;;;4997483;28;20351;-90
2022/09/16 06:11:59;;;;;;;14.88;2.78;;;9.40;99.90;;;;;;5013378;28;20044;-90
2022/09/16 06:14:31;;;;;;;17.60;3.75;;;9.50;99.90;;;;;;5012969;28;20442;-88
2022/09/16 06:17:02;;;;;;;14.90;2.65;;;9.60;99.90;;;;;;4996879;28;20100;-88
2022/09/16 06:19:28;;;;;;;15.00;2.63;;;9.60;99.90;;;;;;4996597;28;20046;-89
2022/09/16 06:21:54;;;;;;;17.83;2.95;;;9.70;99.90;;;;;;5012561;28;20400;-89
2022/09/16 06:24:33;;;;;;;11.02;2.65;;;9.90;99.90;;;;;;5012576;28;20042;-88
2022/09/16 06:27:08;;;;;;;14.65;3.08;;;9.60;99.90;;;;;;5012670;28;20057;-88
2022/09/16 06:29:50;;;;;;;15.63;2.85;;;9.70;99.90;;;;;;4996836;28;20045;-87
2022/09/16 06:32:31;;;;;;;17.20;3.20;;;9.70;99.90;;;;;;4996661;28;20362;-89
2022/09/16 06:35:02;;;;;;;13.60;2.55;;;9.70;99.90;;;;;;4997485;28;20053;-89
2022/09/16 06:37:33;;;;;;;15.20;2.90;;;9.70;99.90;;;;;;4996960;28;20454;-87
2022/09/16 06:40:27;;;;;;;14.82;3.45;;;9.80;99.90;;;;;;4999155;28;20046;-88
2022/09/16 06:42:53;;;;;;;11.88;2.72;;;9.90;99.90;;;;;;4974627;28;20057;-89
2022/09/16 06:45:34;;;;;;;12.13;2.50;;;10.00;99.90;;;;;;5012152;28;20523;-89
2022/09/16 06:48:20;;;;;;;;;;;10.00;99.90;;;;;;4996751;28;20037;-92
2022/09/16 06:50:46;;;;;;;15.30;2.83;;;10.10;99.90;;;;;;5013756;28;20392;-90
2022/09/16 06:53:35;;;;;;;12.27;2.75;;;10.40;99.90;;;;;;4996593;28;20057;-89
2022/09/16 06:56:16;;;;;;;;;;;;;;;;;;;;;
2022/09/16 06:58:47;;;;;;;16.15;3.00;;;10.70;99.90;;;;;;5012793;28;20052;-90
2022/09/16 07:01:19;;;;;;;17.02;2.95;;;10.80;99.90;;;;;;4995927;28;20485;-88
2022/09/16 07:03:48;;;;;;;20.67;2.87;;;10.80;99.90;;;;;;4997193;28;20085;-90
2022/09/16 07:06:40;;;;;;;17.45;3.00;;;10.90;99.90;;;;;;5002408;28;20543;-89
2022/09/16 07:09:19;;;;;;;;;;;;;;;;;;;;;
2022/09/16 07:11:48;;;;;;;14.48;2.53;;;11.10;99.90;;;;;;5017219;28;20085;-91
2022/09/16 07:14:39;;;;;;;19.90;3.28;;;11.30;99.90;;;;;;4985738;28;20370;-91
2022/09/16 07:20:17;;;;;;;12.40;2.92;;;11.60;99.90;;;;;;5009064;28;20053;-89
2022/09/16 07:22:53;;;;;;;15.25;2.58;;;11.60;99.90;;;;;;4983289;28;20042;-90
2022/09/16 07:25:18;;;;;;;15.35;2.88;;;11.60;99.90;;;;;;4983676;28;20048;-88
2022/09/16 07:31:04;;;;;;;11.82;2.65;;;11.60;99.90;;;;;;4995476;28;20058;-89
2022/09/16 07:33:51;;;;;;;14.50;2.90;;;11.60;99.90;;;;;;5000342;28;20072;-88
2022/09/16 07:36:51;;;;;;;14.10;2.92;;;11.60;99.90;;;;;;4999866;28;20409;-89
2022/09/16 07:39:38;;;;;;;12.65;2.92;;;11.80;99.90;;;;;;4999967;28;20046;-89
2022/09/16 07:45:51;;;;;;;14.25;2.90;;;12.10;99.90;;;;;;5015547;28;20041;-89
2022/09/16 07:51:25;;;;;;;12.23;3.42;;;12.50;99.90;;;;;;5016975;28;20054;-90
2022/09/16 07:53:58;;;;;;;11.65;2.83;;;12.70;99.90;;;;;;4999306;28;20053;-88
2022/09/16 07:56:30;;;;;;;14.02;2.75;;;12.80;99.90;;;;;;4998946;28;20056;-89
2022/09/16 07:59:06;;;;;;;17.48;3.17;;;12.80;99.90;;;;;;4998822;28;20046;-88
2022/09/16 08:01:32;;;;;;;9.05;2.55;;;12.70;99.90;;;;;;4983933;28;20050;-87
2022/09/16 08:04:01;;;;;;;9.68;2.50;;;12.60;99.90;;;;;;4999019;28;20072;-88
2022/09/16 08:06:31;;;;;;;14.98;2.95;;;12.50;99.90;;;;;;5015236;28;20081;-88
2022/09/16 08:08:59;;;;;;;15.98;3.22;;;12.60;99.90;;;;;;5014884;28;20042;-86
2022/09/16 08:11:28;;;;;;;15.23;2.97;;;12.30;99.90;;;;;;4998301;28;20052;-87
2022/09/16 08:14:08;;;;;;;18.25;4.25;;;12.40;99.90;;;;;;4982962;28;20045;-90
2022/09/16 08:16:36;;;;;;;16.02;3.72;;;12.30;99.90;;;;;;4998572;28;20046;-88
2022/09/16 08:19:10;;;;;;;19.85;3.45;;;12.40;99.90;;;;;;4983939;28;20415;-88
2022/09/16 08:21:41;;;;;;;15.30;3.17;;;12.50;99.90;;;;;;4999870;28;20177;-88
2022/09/16 08:24:19;;;;;;;;;;;;;;;;;;;;;
2022/09/16 08:27:12;;;;;;;;;;;;;;;;;;;;;
2022/09/16 08:29:41;;;;;;;15.18;3.47;;;12.60;99.90;;;;;;5015678;28;20042;-88
2022/09/16 08:32:07;;;;;;;18.60;3.42;;;12.80;99.90;;;;;;4998081;28;20058;-87
2022/09/16 08:34:42;;;;;;;22.85;3.75;;;12.80;99.90;;;;;;4998673;28;20424;-88
2022/09/16 08:37:11;;;;;;;13.88;3.22;;;13.00;99.90;;;;;;4998977;28;20096;-89
2022/09/16 08:39:49;;;;;;;18.52;3.42;;;13.10;99.90;;;;;;5014632;28;20145;-88
2022/09/16 08:42:30;;;;;;;20.17;4.25;;;13.20;99.90;;;;;;5014724;28;20054;-87
2022/09/16 08:45:08;;;;;;;17.17;3.70;;;13.20;99.90;;;;;;5014209;28;20092;-88
2022/09/16 08:48:06;;;;;;;19.30;4.40;;;13.30;99.90;;;;;;5014598;28;20125;-86
2022/09/16 08:50:46;;;;;;;13.73;3.10;;;13.40;99.90;;;;;;4999673;28;20053;-87
2022/09/16 08:53:33;;;;;;;17.27;3.05;;;13.50;99.90;;;;;;4981903;28;20042;-88
2022/09/16 08:56:07;;;;;;;15.45;3.17;;;13.60;99.90;;;;;;4998734;28;20100;-86
2022/09/16 08:58:47;;;;;;;10.30;2.42;;;13.70;99.90;;;;;;5014465;28;20046;-89
2022/09/16 09:02:00;;;;;;;13.27;2.60;;;13.80;99.90;;;;;;4998235;28;20050;-89
2022/09/16 09:04:33;;;;;;;15.90;3.30;;;14.10;99.90;;;;;;4998612;28;20050;-86
2022/09/16 09:07:16;;;;;;;10.85;2.40;;;14.00;99.90;;;;;;4998169;28;20099;-88
2022/09/16 09:10:15;;;;;;;9.57;2.72;;;14.20;99.90;;;;;;4997795;28;20045;-88
2022/09/16 09:13:36;;;;;;;16.00;3.08;;;14.30;99.90;;;;;;5014156;28;20048;-88
2022/09/16 09:17:00;;;;;;;;;;;;;;;;;;;;;
2022/09/16 09:19:45;;;;;;;;;;;;;;;;;;;;;
2022/09/16 09:22:42;;;;;;;16.00;3.00;;;14.30;99.90;;;;;;5014025;28;19921;-88
2022/09/16 09:26:12;;;;;;;14.13;2.90;;;14.30;99.90;;;;;;4997537;28;20049;-89
2022/09/16 09:29:05;;;;;;;17.10;3.55;;;14.30;99.90;;;;;;4997426;28;20042;-89
2022/09/16 09:32:03;;;;;;;17.88;3.00;;;14.70;99.90;;;;;;4998459;28;20096;-88
2022/09/16 09:35:12;;;;;;;11.63;3.25;;;15.00;99.90;;;;;;4997660;28;20069;-89
2022/09/16 09:38:11;;;;;;;15.13;2.78;;;15.20;99.90;;;;;;4998911;28;20057;-88
2022/09/16 09:40:55;;;;;;;14.02;3.17;;;15.10;99.90;;;;;;4997231;28;20056;-87
2022/09/16 09:43:27;;;;;;;14.63;3.13;;;14.80;99.90;;;;;;4982843;28;20074;-87
2022/09/16 09:46:25;;;;;;;11.93;3.17;;;14.70;99.90;;;;;;5013745;28;20436;-89
2022/09/16 09:49:12;;;;;;;10.55;2.63;;;14.70;99.90;;;;;;4989216;28;20109;-88
2022/09/16 09:51:48;;;;;;;18.13;3.25;;;14.80;99.90;;;;;;4997963;28;20068;-87
2022/09/16 09:54:25;;;;;;;11.85;2.63;;;15.00;99.90;;;;;;5013969;28;20080;-89
2022/09/16 09:57:22;;;;;;;13.02;2.22;;;15.20;99.90;;;;;;4997375;28;20049;-87
2022/09/16 09:59:59;;;;;;;12.25;2.40;;;15.30;99.90;;;;;;4991788;28;20061;-87
2022/09/16 10:02:30;;;;;;;12.43;2.55;;;15.10;99.50;;;;;;5013665;28;20042;-89
2022/09/16 10:04:56;;;;;;;15.82;3.83;;;15.00;99.90;;;;;;4997396;28;20042;-87
2022/09/16 10:07:27;;;;;;;14.52;3.45;;;15.10;99.50;;;;;;5012881;28;20559;-91
2022/09/16 10:10:13;;;;;;;11.27;2.80;;;15.10;99.90;;;;;;4997606;28;20492;-88
2022/09/16 10:12:52;;;;;;;;;;;;;;;;;;;;;
2022/09/16 10:15:57;;;;;;;;;;;;;;;;;;;;;
2022/09/16 10:18:28;;;;;;;13.23;3.25;;;15.70;99.50;;;;;;5012825;28;20065;-88
2022/09/16 10:21:16;;;;;;;16.65;2.45;;;16.00;99.50;;;;;;4996963;28;20390;-88
2022/09/16 10:23:56;;;;;;;14.00;3.15;;;16.10;98.80;;;;;;4980437;28;20053;-87
2022/09/16 10:26:28;;;;;;;10.05;2.03;;;15.90;98.40;;;;;;4997329;28;20053;-88
2022/09/16 10:29:21;;;;;;;10.23;2.20;;;15.80;97.90;;;;;;4995884;28;20052;-87
2022/09/16 10:32:05;;;;;;;;;;;;;;;;;;;;;
2022/09/16 10:34:38;;;;;;;13.25;2.60;;;15.90;97.60;;;;;;5013674;28;20050;-90
2022/09/16 10:40:27;;;;;;;;;;;;;;;;;;;;;
2022/09/16 10:42:58;;;;;;;18.02;2.88;;;16.40;94.70;;;;;;5017286;28;20046;-89
2022/09/16 10:45:54;;;;;;;14.00;2.40;;;16.30;94.60;;;;;;5001343;28;20049;-88
2022/09/16 10:48:51;;;;;;;13.27;2.90;;;16.10;94.90;;;;;;5016712;28;20048;-90
2022/09/16 10:51:35;;;;;;;11.05;2.85;;;16.00;96.00;;;;;;5017168;28;20072;-88
2022/09/16 10:54:08;;;;;;;13.98;2.70;;;16.00;95.90;;;;;;5001312;28;20188;-88
2022/09/16 10:57:30;;;;;;;12.07;3.58;;;16.30;96.60;;;;;;5019257;28;20045;-89
2022/09/16 11:00:31;;;;;;;12.27;2.22;;;16.50;95.20;;;;;;4974657;28;20062;-91
2022/09/16 11:03:06;;;;;;;12.73;2.50;;;16.30;95.20;;;;;;4996688;28;20096;-88
2022/09/16 11:06:18;;;;;;;11.95;2.45;;;16.20;95.90;;;;;;4999800;28;20048;-88
2022/09/16 11:09:17;;;;;;;16.10;2.25;;;16.10;96.10;;;;;;5016630;28;20050;-90
2022/09/16 11:12:09;;;;;;;15.43;2.35;;;16.30;94.50;;;;;;5016723;28;20137;-88
2022/09/16 11:14:53;;;;;;;8.00;2.25;;;16.50;94.10;;;;;;4993062;28;20058;-87
2022/09/16 11:18:06;;;;;;;10.32;2.17;;;16.80;94.20;;;;;;5000064;28;20503;-89
2022/09/16 11:20:52;;;;;;;13.73;2.83;;;16.90;94.40;;;;;;4955776;28;20050;-90
2022/09/16 11:23:53;;;;;;;13.40;2.70;;;16.90;93.80;;;;;;5017384;28;20442;-89
2022/09/16 11:26:24;;;;;;;7.47;2.28;;;16.60;93.20;;;;;;5000519;28;20371;-89
2022/09/16 11:29:13;;;;;;;14.02;2.88;;;16.30;94.30;;;;;;4999173;28;20175;-88
2022/09/16 11:31:56;;;;;;;16.40;3.30;;;16.10;93.70;;;;;;4999893;28;20072;-88
2022/09/16 11:34:48;;;;;;;11.82;2.63;;;16.20;94.90;;;;;;5001098;28;20219;-89
2022/09/16 11:37:25;;;;;;;16.83;2.95;;;16.40;94.20;;;;;;5016726;28;20086;-89
2022/09/16 11:43:10;;;;;;;11.05;2.90;;;16.60;92.30;;;;;;5016768;28;20064;-90
2022/09/16 11:45:52;;;;;;;15.82;3.00;;;16.70;92.70;;;;;;5000071;28;20057;-89
2022/09/16 11:48:33;;;;;;;11.73;2.75;;;16.70;92.70;;;;;;5016187;28;20573;-88
2022/09/16 11:51:22;;;;;;;12.95;2.75;;;16.90;92.40;;;;;;4999596;28;20080;-89
2022/09/16 11:54:05;;;;;;;13.50;2.50;;;17.10;93.20;;;;;;5000090;28;20085;-87
2022/09/16 11:56:37;;;;;;;13.68;2.22;;;17.30;93.20;;;;;;4999359;28;20054;-91
2022/09/16 11:59:39;;;;;;;15.35;2.83;;;17.50;91.80;;;;;;5000002;28;20120;-90
2022/09/16 12:02:54;;;;;;;12.00;2.70;;;17.60;91.30;;;;;;4999675;28;20088;-88
2022/09/16 12:05:29;;;;;;;16.33;2.78;;;17.60;91.30;;;;;;4986763;28;20150;-89
2022/09/16 12:08:42;;;;;;;15.35;3.35;;;17.50;89.40;;;;;;5000918;28;20088;-90
2022/09/16 12:11:17;;;;;;;14.35;2.78;;;17.50;89.00;;;;;;4990725;28;20096;-91
2022/09/16 12:13:53;;;;;;;10.60;2.83;;;17.50;89.20;;;;;;5015133;28;20046;-87
2022/09/16 12:16:35;;;;;;;13.77;2.80;;;17.50;88.30;;;;;;5013604;28;20374;-91
2022/09/16 12:19:14;;;;;;;17.00;3.42;;;17.40;87.70;;;;;;4999567;28;20041;-92
2022/09/16 12:22:43;;;;;;;17.67;4.30;;;17.40;88.30;;;;;;4999501;28;20053;-88
2022/09/16 12:26:09;;;;;;;;;;;;;;;;;;;;;
2022/09/16 12:28:47;;;;;;;15.60;3.80;;;17.10;91.00;;;;;;5000825;28;20050;-88
2022/09/16 12:31:59;;;;;;;16.73;3.58;;;17.00;91.10;;;;;;5000054;28;20073;-88
2022/09/16 12:37:59;;;;;;;20.98;4.38;;;16.70;91.40;;;;;;4926935;29;20511;-88
2022/09/16 12:41:02;;;;;;;15.15;3.25;;;16.80;91.10;;;;;;4939097;29;20634;-92
2022/09/16 12:43:55;;;;;;;14.82;3.50;;;16.90;91.00;;;;;;5004704;28;20409;-90
2022/09/16 12:47:03;;;;;;;18.10;4.13;;;16.80;90.20;;;;;;4998431;28;20057;-89
2022/09/16 12:49:53;;;;;;;17.35;3.60;;;17.00;91.60;;;;;;4997791;28;20037;-88
2022/09/16 12:52:37;;;;;;;17.58;3.60;;;17.30;91.60;;;;;;4998276;28;20053;-90
2022/09/16 12:55:42;;;;;;;;;;;;;;;;;;;;;
2022/09/16 12:58:38;;;;;;;18.67;2.88;;;16.90;91.00;;;;;;5014273;28;20071;-89
2022/09/16 13:01:21;;;;;;;;;;;;;;;;;;;;;
2022/09/16 13:04:29;;;;;;;11.07;2.63;;;16.70;91.90;;;;;;5015008;28;20053;-89
2022/09/16 13:07:01;;;;;;;6.00;1.90;;;16.60;91.90;;;;;;4991015;28;20104;-89
2022/09/16 13:09:42;;;;;;;7.95;2.17;;;16.50;91.90;;;;;;4997816;28;20069;-91
2022/09/16 13:12:26;;;;;;;14.43;2.10;;;16.50;91.70;;;;;;4997568;28;20544;-89
2022/09/16 13:15:06;;;;;;;5.45;1.45;;;16.50;91.90;;;;;;4997862;28;20057;-92
2022/09/16 13:17:52;;;;;;;10.57;1.40;;;16.40;91.80;;;;;;5014272;28;20057;-89
2022/09/16 13:20:31;;;;;;;5.32;1.30;;;16.30;90.30;;;;;;4997744;28;20061;-88
2022/09/16 13:23:25;;;;;;;6.32;1.33;;;16.20;91.10;;;;;;4997681;28;20089;-89
2022/09/16 13:26:08;;;;;;;8.93;1.17;;;16.20;91.30;;;;;;4981474;28;20477;-88
2022/09/16 13:28:48;;;;;;;9.55;1.90;;;16.10;91.10;;;;;;4997895;28;20490;-87
2022/09/16 13:31:17;;;;;;;12.68;2.13;;;15.90;93.10;;;;;;4998009;28;20054;-88
2022/09/16 13:34:20;;;;;;;7.97;1.80;;;15.50;95.20;;;;;;4998712;28;20500;-88
2022/09/16 13:36:59;;;;;;;6.13;1.48;;;15.20;96.30;;;;;;4997484;28;20049;-89
2022/09/16 13:39:43;;;;;;;7.97;1.65;;;15.00;97.10;;;;;;4984037;28;20045;-90
2022/09/16 13:42:24;;;;;;;5.78;1.42;;;14.90;97.50;;;;;;4997079;28;20046;-88
2022/09/16 13:45:00;;;;;;;8.40;2.08;;;14.80;98.10;;;;;;4997284;28;20113;-89
2022/09/16 13:47:39;;;;;;;9.45;1.85;;;14.60;99.00;;;;;;4997190;28;20451;-90
2022/09/16 13:50:17;;;;;;;8.30;2.00;;;14.60;99.60;;;;;;5013676;28;20057;-89
2022/09/16 13:52:49;;;;;;;8.70;2.40;;;14.50;99.90;;;;;;5013677;28;20188;-90
2022/09/16 13:55:40;;;;;;;6.57;1.75;;;14.40;99.90;;;;;;5013457;28;20511;-89
2022/09/16 13:58:55;;;;;;;7.68;2.30;;;14.40;99.90;;;;;;4997085;28;20112;-89
2022/09/16 14:01:47;;;;;;;;;;;;;;;;;;;;;
2022/09/16 14:04:53;;;;;;;9.88;2.70;;;14.20;99.90;;;;;;5013958;28;20045;-89
2022/09/16 14:07:55;;;;;;;;;;;;;;;;;;;;;
2022/09/16 14:11:17;;;;;;;13.77;2.92;;;14.10;99.90;;;;;;5006484;28;20065;-89
2022/09/16 14:14:15;;;;;;;12.25;3.00;;;14.10;99.90;;;;;;4996721;28;20049;-89
2022/09/16 14:16:55;;;;;;;14.52;2.88;;;14.40;99.90;;;;;;4995911;28;20160;-89
2022/09/16 14:19:45;;;;;;;12.23;3.03;;;14.80;99.90;;;;;;5013907;28;20045;-89
2022/09/16 14:22:25;;;;;;;13.82;2.63;;;14.80;99.90;;;;;;4996804;28;20050;-89
2022/09/16 14:24:56;;;;;;;12.68;2.95;;;14.90;99.90;;;;;;4997304;28;20437;-89
2022/09/16 14:27:36;;;;;;;14.43;3.13;;;14.90;99.90;;;;;;5013057;28;20054;-88
2022/09/16 14:30:05;;;;;;;14.80;3.22;;;15.00;99.90;;;;;;4996467;28;20050;-91
2022/09/16 14:32:37;;;;;;;10.68;2.28;;;15.00;99.90;;;;;;4995887;28;20057;-89
2022/09/16 14:35:18;;;;;;;10.00;2.83;;;15.00;99.90;;;;;;4996693;28;20046;-90
2022/09/16 14:38:27;;;;;;;12.80;2.95;;;15.10;99.90;;;;;;5013073;28;20053;-89
2022/09/16 14:41:15;;;;;;;17.73;2.92;;;15.10;99.90;;;;;;5011284;28;20153;-90
2022/09/16 14:43:47;;;;;;;10.70;1.60;;;15.00;99.90;;;;;;4996006;28;20076;-89
2022/09/16 14:46:18;;;;;;;19.42;2.42;;;14.90;99.90;;;;;;4996587;28;20065;-92
2022/09/16 14:48:48;;;;;;;6.22;1.80;;;14.70;99.90;;;;;;4995959;28;20081;-90
2022/09/16 14:51:54;;;;;;;6.28;1.80;;;14.50;99.90;;;;;;5013110;28;20489;-89
2022/09/16 14:54:27;;;;;;;6.60;1.80;;;14.30;99.90;;;;;;4989440;28;20057;-89
2022/09/16 14:57:19;;;;;;;12.77;2.42;;;14.20;99.90;;;;;;4997167;28;20158;-89
2022/09/16 14:59:48;;;;;;;12.27;2.60;;;14.20;99.90;;;;;;4996352;28;20133;-89
2022/09/16 15:02:44;;;;;;;12.10;3.00;;;14.10;99.90;;;;;;4996263;28;20477;-91
2022/09/16 15:05:37;;;;;;;10.10;2.58;;;14.00;99.90;;;;;;4996339;28;20114;-89
2022/09/16 15:08:12;;;;;;;10.85;2.70;;;13.80;99.90;;;;;;4997162;28;20057;-88
2022/09/16 15:10:48;;;;;;;11.55;2.78;;;13.50;99.90;;;;;;4995999;28;20511;-88
2022/09/16 15:13:19;;;;;;;14.57;3.40;;;13.40;99.90;;;;;;5013202;28;20050;-87
2022/09/16 15:18:56;;;;;;;14.20;2.97;;;13.30;99.90;;;;;;5013450;28;20049;-87
2022/09/16 15:21:30;;;;;;;13.52;3.25;;;13.20;99.90;;;;;;4995958;28;20057;-88